sensor_id;sensor_type;location;lat;lon;timestamp;pressure;altitude;pressure_sealevel;temperature;humidity
22206;BME280;11272;50.104;8.754;2023-03-14T00:01:57;98675.22;;;11.26;100.00
22206;BME280;11272;50.104;8.754;2023-03-14T00:04:23;98678.78;;;11.25;100.00
22206;BME280;11272;50.104;8.754;2023-03-14T00:06:49;98678.78;;;11.25;100.00
22206;BME280;11272;50.104;8.754;2023-03-14T00:09:16;98676.22;;;11.23;100.00
22206;BME280;11272;50.104;8.754;2023-03-14T00:11:42;98670.91;;;11.23;100.00
22206;BME280;11272;50.104;8.754;2023-03-14T00:14:08;98679.78;;;11.22;100.00
22206;BME280;11272;50.104;8.754;2023-03-14T00:16:34;98671.06;;;11.20;100.00
22206;BME280;11272;50.104;8.754;2023-03-14T00:18:59;98697.72;;;11.19;100.00
22206;BME280;11272;50.104;8.754;2023-03-14T00:21:25;98691.47;;;11.20;100.00
22206;BME280;11272;50.104;8.754;2023-03-14T00:23:52;98687.06;;;11.19;100.00
22206;BME280;11272;50.104;8.754;2023-03-14T00:26:20;98682.56;;;11.21;100.00
22206;BME280;11272;50.104;8.754;2023-03-14T00:28:46;98694.97;;;11.20;100.00
22206;BME280;11272;50.104;8.754;2023-03-14T00:31:16;98687.88;;;11.21;100.00
22206;BME280;11272;50.104;8.754;2023-03-14T00:33:43;98679.78;;;11.22;100.00
22206;BME280;11272;50.104;8.754;2023-03-14T00:36:12;98680.66;;;11.23;100.00
22206;BME280;11272;50.104;8.754;2023-03-14T00:38:40;98680.66;;;11.23;100.00
22206;BME280;11272;50.104;8.754;2023-03-14T00:41:08;98681.59;;;11.22;100.00
22206;BME280;11272;50.104;8.754;2023-03-14T00:43:34;98677.13;;;11.22;100.00
22206;BME280;11272;50.104;8.754;2023-03-14T00:46:01;98679.78;;;11.22;100.00
22206;BME280;11272;50.104;8.754;2023-03-14T00:48:28;98676.28;;;11.22;100.00
22206;BME280;11272;50.104;8.754;2023-03-14T00:50:54;98675.34;;;11.23;100.00
22206;BME280;11272;50.104;8.754;2023-03-14T00:53:19;98647.84;;;11.24;100.00
22206;BME280;11272;50.104;8.754;2023-03-14T00:55:45;98647.78;;;11.25;100.00
22206;BME280;11272;50.104;8.754;2023-03-14T00:58:13;98639.72;;;11.27;100.00
22206;BME280;11272;50.104;8.754;2023-03-14T01:00:40;98635.34;;;11.26;100.00
22206;BME280;11272;50.104;8.754;2023-03-14T01:03:08;98635.41;;;11.24;100.00
22206;BME280;11272;50.104;8.754;2023-03-14T01:05:34;98632.84;;;11.23;100.00
22206;BME280;11272;50.104;8.754;2023-03-14T01:08:00;98639.09;;;11.22;100.00
22206;BME280;11272;50.104;8.754;2023-03-14T01:10:27;98648.88;;;11.21;100.00
22206;BME280;11272;50.104;8.754;2023-03-14T01:12:53;98653.34;;;11.21;100.00
22206;BME280;11272;50.104;8.754;2023-03-14T01:15:19;98664.81;;;11.21;100.00
22206;BME280;11272;50.104;8.754;2023-03-14T01:17:44;98663.97;;;11.21;100.00
22206;BME280;11272;50.104;8.754;2023-03-14T01:20:12;98663.00;;;11.22;100.00
22206;BME280;11272;50.104;8.754;2023-03-14T01:22:39;98663.09;;;11.20;100.00
22206;BME280;11272;50.104;8.754;2023-03-14T01:25:12;98670.97;;;11.22;100.00
22206;BME280;11272;50.104;8.754;2023-03-14T01:27:38;98674.41;;;11.24;100.00
22206;BME280;11272;50.104;8.754;2023-03-14T01:30:05;98657.38;;;11.28;100.00
22206;BME280;11272;50.104;8.754;2023-03-14T02:28:31;98558.72;;;11.34;96.04
22206;BME280;11272;50.104;8.754;2023-03-14T02:31:00;98559.06;;;11.28;95.78
22206;BME280;11272;50.104;8.754;2023-03-14T02:33:26;98537.31;;;11.21;95.26
22206;BME280;11272;50.104;8.754;2023-03-14T02:35:58;98548.94;;;11.19;94.99
22206;BME280;11272;50.104;8.754;2023-03-14T02:41:14;98546.28;;;11.19;94.91
22206;BME280;11272;50.104;8.754;2023-03-14T02:43:45;98527.75;;;11.17;94.45
22206;BME280;11272;50.104;8.754;2023-03-14T02:46:14;98523.50;;;11.15;94.91
22206;BME280;11272;50.104;8.754;2023-03-14T02:48:52;98539.56;;;11.12;95.13
22206;BME280;11272;50.104;8.754;2023-03-14T02:51:20;98543.19;;;11.11;95.15
22206;BME280;11272;50.104;8.754;2023-03-14T02:53:47;98543.69;;;11.17;94.02
22206;BME280;11272;50.104;8.754;2023-03-14T02:56:14;98559.56;;;11.19;93.58
22206;BME280;11272;50.104;8.754;2023-03-14T02:58:39;98560.50;;;11.18;94.26
22206;BME280;11272;50.104;8.754;2023-03-14T03:01:20;98557.09;;;11.16;94.15
22206;BME280;11272;50.104;8.754;2023-03-14T03:03:46;98556.91;;;11.19;93.97
22206;BME280;11272;50.104;8.754;2023-03-14T03:06:12;98556.72;;;11.22;93.83
22206;BME280;11272;50.104;8.754;2023-03-14T03:08:37;98554.88;;;11.24;93.53
22206;BME280;11272;50.104;8.754;2023-03-14T03:11:06;98547.56;;;11.27;93.05
22206;BME280;11272;50.104;8.754;2023-03-14T03:13:34;98547.50;;;11.29;92.98
22206;BME280;11272;50.104;8.754;2023-03-14T08:22:15;98416.72;;;12.29;72.51
22206;BME280;11272;50.104;8.754;2023-03-14T08:24:50;98402.28;;;12.33;72.47
22206;BME280;11272;50.104;8.754;2023-03-14T10:44:11;98432.63;;;12.87;75.90
22206;BME280;11272;50.104;8.754;2023-03-14T10:46:38;98421.84;;;12.89;75.57
22206;BME280;11272;50.104;8.754;2023-03-14T10:49:33;98423.38;;;12.79;76.29
22206;BME280;11272;50.104;8.754;2023-03-14T10:54:34;98435.00;;;12.63;77.81
22206;BME280;11272;50.104;8.754;2023-03-14T10:57:01;98430.25;;;12.54;78.47
22206;BME280;11272;50.104;8.754;2023-03-14T10:59:37;98427.19;;;12.46;79.21
22206;BME280;11272;50.104;8.754;2023-03-14T11:02:20;98423.47;;;12.35;80.05
22206;BME280;11272;50.104;8.754;2023-03-14T11:07:41;98429.50;;;12.08;82.53
22206;BME280;11272;50.104;8.754;2023-03-14T11:24:20;98421.47;;;11.64;89.06
22206;BME280;11272;50.104;8.754;2023-03-14T11:27:10;98428.41;;;11.67;89.64
22206;BME280;11272;50.104;8.754;2023-03-14T11:29:53;98428.47;;;11.65;90.53
22206;BME280;11272;50.104;8.754;2023-03-14T11:35:27;98439.31;;;11.62;91.23
22206;BME280;11272;50.104;8.754;2023-03-14T11:38:14;98442.22;;;11.58;92.52
22206;BME280;11272;50.104;8.754;2023-03-14T11:40:41;98428.84;;;11.59;93.08
22206;BME280;11272;50.104;8.754;2023-03-14T11:43:46;98424.50;;;11.58;93.38
22206;BME280;11272;50.104;8.754;2023-03-14T11:46:25;98433.31;;;11.59;94.46
22206;BME280;11272;50.104;8.754;2023-03-14T11:49:03;98430.47;;;11.62;94.74
22206;BME280;11272;50.104;8.754;2023-03-14T11:51:36;98432.09;;;11.64;95.17
22206;BME280;11272;50.104;8.754;2023-03-14T11:59:27;98426.28;;;11.73;96.67
22206;BME280;11272;50.104;8.754;2023-03-14T12:02:01;98432.19;;;11.78;96.77
22206;BME280;11272;50.104;8.754;2023-03-14T12:07:15;98430.53;;;11.76;97.42
22206;BME280;11272;50.104;8.754;2023-03-14T12:09:43;98431.41;;;11.76;97.01
22206;BME280;11272;50.104;8.754;2023-03-14T12:12:14;98427.28;;;11.71;97.10
22206;BME280;11272;50.104;8.754;2023-03-14T12:14:52;98458.19;;;11.73;97.61
22206;BME280;11272;50.104;8.754;2023-03-14T12:17:25;98521.78;;;11.61;96.52
22206;BME280;11272;50.104;8.754;2023-03-14T12:20:04;98551.28;;;11.25;94.15
22206;BME280;11272;50.104;8.754;2023-03-14T12:22:42;98568.56;;;10.83;94.48
22206;BME280;11272;50.104;8.754;2023-03-14T12:35:38;98641.88;;;10.69;98.89
22206;BME280;11272;50.104;8.754;2023-03-14T12:38:13;98662.28;;;10.68;98.99
22206;BME280;11272;50.104;8.754;2023-03-14T12:40:56;98669.81;;;10.59;98.20
22206;BME280;11272;50.104;8.754;2023-03-14T12:43:43;98687.53;;;10.41;97.80
22206;BME280;11272;50.104;8.754;2023-03-14T12:46:22;98695.91;;;10.32;98.21
22206;BME280;11272;50.104;8.754;2023-03-14T12:51:36;98714.63;;;10.29;99.82
22206;BME280;11272;50.104;8.754;2023-03-14T12:59:33;98739.03;;;10.54;99.69
22206;BME280;11272;50.104;8.754;2023-03-14T13:04:43;98757.91;;;10.67;100.00
22206;BME280;11272;50.104;8.754;2023-03-14T13:07:30;98768.56;;;10.65;100.00
22206;BME280;11272;50.104;8.754;2023-03-14T13:12:39;98784.91;;;10.75;100.00
22206;BME280;11272;50.104;8.754;2023-03-14T13:15:38;98807.06;;;10.74;99.79
22206;BME280;11272;50.104;8.754;2023-03-14T13:18:12;98817.63;;;10.75;99.89
22206;BME280;11272;50.104;8.754;2023-03-14T13:20:58;98826.69;;;10.71;99.00
22206;BME280;11272;50.104;8.754;2023-03-14T13:23:30;98835.28;;;10.76;99.50
22206;BME280;11272;50.104;8.754;2023-03-14T13:25:56;98832.19;;;10.85;99.12
22206;BME280;11272;50.104;8.754;2023-03-14T13:28:23;98829.97;;;10.95;99.36
22206;BME280;11272;50.104;8.754;2023-03-14T13:30:54;98846.44;;;11.02;97.80
22206;BME280;11272;50.104;8.754;2023-03-14T13:33:22;98846.72;;;11.14;97.85
22206;BME280;11272;50.104;8.754;2023-03-14T13:35:58;98852.34;;;11.25;95.92
22206;BME280;11272;50.104;8.754;2023-03-14T13:38:27;98852.16;;;11.11;93.81
22206;BME280;11272;50.104;8.754;2023-03-14T13:40:58;98868.81;;;11.15;93.93
22206;BME280;11272;50.104;8.754;2023-03-14T13:43:32;98878.13;;;11.23;94.12
22206;BME280;11272;50.104;8.754;2023-03-14T13:46:10;98876.66;;;11.35;93.44
22206;BME280;11272;50.104;8.754;2023-03-14T13:48:44;98892.59;;;11.35;91.90
22206;BME280;11272;50.104;8.754;2023-03-14T13:51:13;98903.25;;;11.35;90.50
22206;BME280;11272;50.104;8.754;2023-03-14T13:53:44;98899.19;;;11.45;90.31
22206;BME280;11272;50.104;8.754;2023-03-14T13:56:10;98906.63;;;11.56;88.58
22206;BME280;11272;50.104;8.754;2023-03-14T13:58:38;98918.59;;;11.47;86.77
22206;BME280;11272;50.104;8.754;2023-03-14T14:01:19;98942.31;;;11.33;85.38
22206;BME280;11272;50.104;8.754;2023-03-14T14:03:48;98955.03;;;11.26;85.32
22206;BME280;11272;50.104;8.754;2023-03-14T14:09:23;98967.88;;;11.17;84.10
22206;BME280;11272;50.104;8.754;2023-03-14T14:14:25;98996.03;;;11.02;83.00
22206;BME280;11272;50.104;8.754;2023-03-14T14:16:53;99020.88;;;11.01;82.24
22206;BME280;11272;50.104;8.754;2023-03-14T14:19:22;99014.13;;;10.94;81.02
22206;BME280;11272;50.104;8.754;2023-03-14T14:21:50;99025.38;;;10.80;79.69
22206;BME280;11272;50.104;8.754;2023-03-14T14:24:16;99042.53;;;10.73;79.04
22206;BME280;11272;50.104;8.754;2023-03-14T14:26:53;99044.22;;;10.74;78.55
22206;BME280;11272;50.104;8.754;2023-03-14T14:29:28;99056.44;;;10.78;77.26
22206;BME280;11272;50.104;8.754;2023-03-14T14:32:23;99075.69;;;10.83;77.62
22206;BME280;11272;50.104;8.754;2023-03-14T14:35:00;99097.59;;;10.88;75.36
22206;BME280;11272;50.104;8.754;2023-03-14T14:37:31;99109.00;;;10.70;75.05
22206;BME280;11272;50.104;8.754;2023-03-14T14:40:08;99109.41;;;10.61;75.37
22206;BME280;11272;50.104;8.754;2023-03-14T14:42:39;99135.28;;;10.36;75.52
22206;BME280;11272;50.104;8.754;2023-03-14T14:45:12;99126.53;;;10.10;76.14
22206;BME280;11272;50.104;8.754;2023-03-14T14:50:34;99146.78;;;9.91;78.41
22206;BME280;11272;50.104;8.754;2023-03-14T14:53:20;99151.94;;;9.94;78.53
22206;BME280;11272;50.104;8.754;2023-03-14T14:55:50;99160.75;;;9.95;78.03
22206;BME280;11272;50.104;8.754;2023-03-14T14:58:26;99166.25;;;9.90;78.76
22206;BME280;11272;50.104;8.754;2023-03-14T15:01:04;99183.06;;;9.89;79.65
22206;BME280;11272;50.104;8.754;2023-03-14T15:03:32;99203.25;;;9.93;79.74
22206;BME280;11272;50.104;8.754;2023-03-14T15:06:01;99196.56;;;9.83;78.43
22206;BME280;11272;50.104;8.754;2023-03-14T15:08:27;99200.66;;;9.68;79.05
22206;BME280;11272;50.104;8.754;2023-03-14T15:10:57;99207.00;;;9.64;79.24
22206;BME280;11272;50.104;8.754;2023-03-14T15:13:23;99231.91;;;9.60;78.88
22206;BME280;11272;50.104;8.754;2023-03-14T15:15:52;99234.13;;;9.48;79.02
22206;BME280;11272;50.104;8.754;2023-03-14T15:18:23;99243.91;;;9.46;79.58
22206;BME280;11272;50.104;8.754;2023-03-14T15:20:50;99260.66;;;9.46;79.02
22206;BME280;11272;50.104;8.754;2023-03-14T15:23:19;99258.09;;;9.45;79.63
22206;BME280;11272;50.104;8.754;2023-03-14T15:25:45;99266.19;;;9.40;79.32
22206;BME280;11272;50.104;8.754;2023-03-14T15:28:24;99279.59;;;9.36;79.39
22206;BME280;11272;50.104;8.754;2023-03-14T15:30:53;99296.28;;;9.39;79.59
22206;BME280;11272;50.104;8.754;2023-03-14T15:33:20;99294.41;;;9.41;79.94
22206;BME280;11272;50.104;8.754;2023-03-14T15:35:47;99305.00;;;9.41;79.75
22206;BME280;11272;50.104;8.754;2023-03-14T15:38:19;99299.16;;;9.32;78.37
22206;BME280;11272;50.104;8.754;2023-03-14T15:40:46;99308.16;;;9.27;78.52
22206;BME280;11272;50.104;8.754;2023-03-14T15:43:13;99311.03;;;9.20;78.09
22206;BME280;11272;50.104;8.754;2023-03-14T15:45:39;99324.28;;;9.20;78.07
22206;BME280;11272;50.104;8.754;2023-03-14T15:48:14;99331.53;;;9.15;77.91
22206;BME280;11272;50.104;8.754;2023-03-14T15:50:40;99328.88;;;9.15;77.31
22206;BME280;11272;50.104;8.754;2023-03-14T15:53:06;99339.59;;;9.12;76.65
22206;BME280;11272;50.104;8.754;2023-03-14T15:55:32;99342.63;;;9.00;75.75
22206;BME280;11272;50.104;8.754;2023-03-14T15:57:58;99338.16;;;9.02;77.17
22206;BME280;11272;50.104;8.754;2023-03-14T16:00:28;99351.69;;;9.19;77.64
22206;BME280;11272;50.104;8.754;2023-03-14T16:02:55;99344.03;;;9.36;76.48
22206;BME280;11272;50.104;8.754;2023-03-14T16:05:21;99349.06;;;9.45;76.31
22206;BME280;11272;50.104;8.754;2023-03-14T16:07:48;99354.09;;;9.51;76.47
22206;BME280;11272;50.104;8.754;2023-03-14T16:10:15;99359.28;;;9.56;76.45
22206;BME280;11272;50.104;8.754;2023-03-14T16:12:41;99355.09;;;9.49;75.55
22206;BME280;11272;50.104;8.754;2023-03-14T16:15:09;99358.00;;;9.41;75.42
22206;BME280;11272;50.104;8.754;2023-03-14T16:17:35;99364.47;;;9.33;75.22
22206;BME280;11272;50.104;8.754;2023-03-14T16:20:04;99370.97;;;9.24;75.28
22206;BME280;11272;50.104;8.754;2023-03-14T16:22:30;99377.56;;;9.11;75.07
22206;BME280;11272;50.104;8.754;2023-03-14T16:25:04;99397.16;;;9.05;75.02
22206;BME280;11272;50.104;8.754;2023-03-14T16:27:30;99401.78;;;8.99;74.51
22206;BME280;11272;50.104;8.754;2023-03-14T16:29:57;99402.09;;;8.90;73.87
22206;BME280;11272;50.104;8.754;2023-03-14T16:32:25;99415.75;;;8.76;73.12
22206;BME280;11272;50.104;8.754;2023-03-14T16:34:51;99416.91;;;8.66;73.68
22206;BME280;11272;50.104;8.754;2023-03-14T16:37:16;99423.03;;;8.68;73.97
22206;BME280;11272;50.104;8.754;2023-03-14T16:39:46;99423.94;;;8.67;74.12
22206;BME280;11272;50.104;8.754;2023-03-14T16:42:12;99424.97;;;8.63;73.93
22206;BME280;11272;50.104;8.754;2023-03-14T16:44:38;99432.31;;;8.53;74.02
22206;BME280;11272;50.104;8.754;2023-03-14T16:47:06;99440.59;;;8.41;74.84
22206;BME280;11272;50.104;8.754;2023-03-14T16:49:32;99446.00;;;8.38;74.80
22206;BME280;11272;50.104;8.754;2023-03-14T16:51:58;99454.03;;;8.33;75.49
22206;BME280;11272;50.104;8.754;2023-03-14T16:54:24;99458.66;;;8.25;76.20
22206;BME280;11272;50.104;8.754;2023-03-14T16:56:50;99457.81;;;8.23;76.67
22206;BME280;11272;50.104;8.754;2023-03-14T16:59:27;99463.00;;;8.28;77.09
22206;BME280;11272;50.104;8.754;2023-03-14T17:01:54;99473.78;;;8.20;76.78
22206;BME280;11272;50.104;8.754;2023-03-14T17:04:21;99482.69;;;8.16;77.26
22206;BME280;11272;50.104;8.754;2023-03-14T17:06:48;99504.63;;;8.20;77.51
22206;BME280;11272;50.104;8.754;2023-03-14T17:09:13;99505.59;;;8.17;77.34
22206;BME280;11272;50.104;8.754;2023-03-14T17:11:39;99511.97;;;8.09;77.70
22206;BME280;11272;50.104;8.754;2023-03-14T17:14:05;99529.78;;;8.02;78.50
22206;BME280;11272;50.104;8.754;2023-03-14T17:16:31;99525.78;;;7.86;79.11
22206;BME280;11272;50.104;8.754;2023-03-14T17:18:57;99529.56;;;7.76;79.79
22206;BME280;11272;50.104;8.754;2023-03-14T17:21:23;99532.56;;;7.62;80.19
22206;BME280;11272;50.104;8.754;2023-03-14T17:23:49;99539.75;;;7.55;80.53
22206;BME280;11272;50.104;8.754;2023-03-14T17:26:15;99545.25;;;7.46;81.62
22206;BME280;11272;50.104;8.754;2023-03-14T17:28:42;99546.16;;;7.45;82.40
22206;BME280;11272;50.104;8.754;2023-03-14T17:31:12;99554.06;;;7.45;83.04
22206;BME280;11272;50.104;8.754;2023-03-14T17:33:39;99563.91;;;7.39;83.19
22206;BME280;11272;50.104;8.754;2023-03-14T17:36:06;99573.97;;;7.22;83.42
22206;BME280;11272;50.104;8.754;2023-03-14T17:38:35;99588.25;;;7.11;84.40
22206;BME280;11272;50.104;8.754;2023-03-14T17:41:02;99590.19;;;7.05;85.11
22206;BME280;11272;50.104;8.754;2023-03-14T17:43:28;99608.59;;;7.06;86.15
22206;BME280;11272;50.104;8.754;2023-03-14T17:46:02;99612.25;;;7.01;86.24
22206;BME280;11272;50.104;8.754;2023-03-14T17:48:32;99621.00;;;7.03;87.38
22206;BME280;11272;50.104;8.754;2023-03-14T17:50:57;99631.56;;;7.03;87.43
22206;BME280;11272;50.104;8.754;2023-03-14T17:53:24;99627.25;;;6.99;87.61
22206;BME280;11272;50.104;8.754;2023-03-14T17:55:50;99641.44;;;6.93;88.06
22206;BME280;11272;50.104;8.754;2023-03-14T17:58:17;99652.91;;;6.91;88.79
22206;BME280;11272;50.104;8.754;2023-03-14T18:00:49;99657.41;;;6.86;88.71
22206;BME280;11272;50.104;8.754;2023-03-14T18:03:15;99664.56;;;6.79;89.27
22206;BME280;11272;50.104;8.754;2023-03-14T18:05:41;99671.56;;;6.82;89.84
22206;BME280;11272;50.104;8.754;2023-03-14T18:08:11;99677.81;;;6.76;90.14
22206;BME280;11272;50.104;8.754;2023-03-14T18:10:38;99684.06;;;6.72;90.67
22206;BME280;11272;50.104;8.754;2023-03-14T18:13:03;99695.44;;;6.74;90.99
22206;BME280;11272;50.104;8.754;2023-03-14T18:15:30;99691.00;;;6.76;91.26
22206;BME280;11272;50.104;8.754;2023-03-14T18:17:59;99695.41;;;6.75;91.77
22206;BME280;11272;50.104;8.754;2023-03-14T18:20:32;99698.91;;;6.78;91.11
22206;BME280;11272;50.104;8.754;2023-03-14T18:22:58;99704.22;;;6.74;91.72
22206;BME280;11272;50.104;8.754;2023-03-14T18:25:26;99709.56;;;6.71;91.84
22206;BME280;11272;50.104;8.754;2023-03-14T18:27:52;99724.63;;;6.65;91.54
22206;BME280;11272;50.104;8.754;2023-03-14T18:30:17;99727.28;;;6.63;92.20
22206;BME280;11272;50.104;8.754;2023-03-14T18:32:44;99740.34;;;6.72;92.74
22206;BME280;11272;50.104;8.754;2023-03-14T18:35:10;99748.13;;;6.78;92.74
22206;BME280;11272;50.104;8.754;2023-03-14T18:37:36;99750.72;;;6.82;92.90
22206;BME280;11272;50.104;8.754;2023-03-14T18:40:02;99751.50;;;6.87;93.10
22206;BME280;11272;50.104;8.754;2023-03-14T18:42:30;99752.31;;;6.90;93.43
22206;BME280;11272;50.104;8.754;2023-03-14T18:44:56;99753.25;;;6.88;93.30
22206;BME280;11272;50.104;8.754;2023-03-14T18:47:22;99762.00;;;6.90;93.61
22206;BME280;11272;50.104;8.754;2023-03-14T18:49:51;99758.47;;;6.91;94.27
22206;BME280;11272;50.104;8.754;2023-03-14T18:52:17;99762.78;;;6.95;93.99
22206;BME280;11272;50.104;8.754;2023-03-14T18:54:43;99772.41;;;6.99;94.05
22206;BME280;11272;50.104;8.754;2023-03-14T18:57:08;99776.81;;;6.98;94.29
22206;BME280;11272;50.104;8.754;2023-03-14T18:59:34;99779.63;;;6.88;93.41
22206;BME280;11272;50.104;8.754;2023-03-14T19:02:01;99784.16;;;6.81;93.79
22206;BME280;11272;50.104;8.754;2023-03-14T19:04:27;99792.13;;;6.76;93.52
22206;BME280;11272;50.104;8.754;2023-03-14T19:06:53;99793.09;;;6.72;93.99
22206;BME280;11272;50.104;8.754;2023-03-14T19:09:18;99800.94;;;6.75;94.40
22206;BME280;11272;50.104;8.754;2023-03-14T19:11:44;99800.88;;;6.80;94.37
22206;BME280;11272;50.104;8.754;2023-03-14T19:14:10;99795.56;;;6.83;94.58
22206;BME280;11272;50.104;8.754;2023-03-14T19:16:40;99797.25;;;6.86;94.58
22206;BME280;11272;50.104;8.754;2023-03-14T19:19:09;99811.44;;;6.78;94.31
22206;BME280;11272;50.104;8.754;2023-03-14T19:21:35;99808.84;;;6.77;94.53
22206;BME280;11272;50.104;8.754;2023-03-14T19:24:03;99816.06;;;6.64;94.08
22206;BME280;11272;50.104;8.754;2023-03-14T19:26:30;99819.81;;;6.51;94.21
22206;BME280;11272;50.104;8.754;2023-03-14T19:28:57;99833.09;;;6.44;95.06
22206;BME280;11272;50.104;8.754;2023-03-14T19:31:24;99833.09;;;6.42;95.22
22206;BME280;11272;50.104;8.754;2023-03-14T19:33:50;99844.59;;;6.40;94.95
22206;BME280;11272;50.104;8.754;2023-03-14T19:36:26;99843.72;;;6.38;95.40
22206;BME280;11272;50.104;8.754;2023-03-14T19:38:53;99849.81;;;6.41;95.35
22206;BME280;11272;50.104;8.754;2023-03-14T19:41:21;99848.03;;;6.43;95.62
22206;BME280;11272;50.104;8.754;2023-03-14T19:43:47;99859.47;;;6.42;95.83
22206;BME280;11272;50.104;8.754;2023-03-14T19:46:13;99860.41;;;6.38;95.67
22206;BME280;11272;50.104;8.754;2023-03-14T19:48:38;99871.84;;;6.39;95.94
22206;BME280;11272;50.104;8.754;2023-03-14T19:51:05;99875.38;;;6.36;95.81
22206;BME280;11272;50.104;8.754;2023-03-14T19:53:31;99879.81;;;6.34;95.93
22206;BME280;11272;50.104;8.754;2023-03-14T19:55:57;99876.31;;;6.32;96.23
22206;BME280;11272;50.104;8.754;2023-03-14T19:58:23;99880.75;;;6.30;96.35
22206;BME280;11272;50.104;8.754;2023-03-14T20:00:49;99884.19;;;6.35;96.95
22206;BME280;11272;50.104;8.754;2023-03-14T20:03:16;99893.81;;;6.36;96.68
22206;BME280;11272;50.104;8.754;2023-03-14T20:05:42;99900.03;;;6.35;96.76
22206;BME280;11272;50.104;8.754;2023-03-14T20:08:10;99903.47;;;6.39;96.69
22206;BME280;11272;50.104;8.754;2023-03-14T20:10:36;99920.19;;;6.36;96.61
22206;BME280;11272;50.104;8.754;2023-03-14T20:13:02;99913.22;;;6.33;96.68
22206;BME280;11272;50.104;8.754;2023-03-14T20:15:28;99927.34;;;6.29;96.06
22206;BME280;11272;50.104;8.754;2023-03-14T20:17:54;99927.34;;;6.29;96.31
22206;BME280;11272;50.104;8.754;2023-03-14T20:20:20;99937.78;;;6.37;96.67
22206;BME280;11272;50.104;8.754;2023-03-14T20:22:47;99929.78;;;6.42;96.52
22206;BME280;11272;50.104;8.754;2023-03-14T20:25:16;99942.94;;;6.46;96.44
22206;BME280;11272;50.104;8.754;2023-03-14T20:27:44;99930.59;;;6.50;96.18
22206;BME280;11272;50.104;8.754;2023-03-14T20:30:12;99942.88;;;6.51;96.69
22206;BME280;11272;50.104;8.754;2023-03-14T20:32:39;99956.00;;;6.55;96.01
22206;BME280;11272;50.104;8.754;2023-03-14T20:35:14;99960.41;;;6.53;96.26
22206;BME280;11272;50.104;8.754;2023-03-14T20:37:54;99963.88;;;6.58;95.84
22206;BME280;11272;50.104;8.754;2023-03-14T20:40:26;99973.53;;;6.61;95.40
22206;BME280;11272;50.104;8.754;2023-03-14T20:42:57;99974.41;;;6.61;95.25
22206;BME280;11272;50.104;8.754;2023-03-14T20:45:32;99982.25;;;6.64;95.15
22206;BME280;11272;50.104;8.754;2023-03-14T20:48:03;99986.63;;;6.67;94.77
22206;BME280;11272;50.104;8.754;2023-03-14T20:50:29;99994.50;;;6.68;94.75
22206;BME280;11272;50.104;8.754;2023-03-14T20:52:55;99993.59;;;6.71;94.73
22206;BME280;11272;50.104;8.754;2023-03-14T20:55:25;100002.47;;;6.67;94.30
22206;BME280;11272;50.104;8.754;2023-03-14T20:57:58;100019.16;;;6.67;94.60
22206;BME280;11272;50.104;8.754;2023-03-14T21:00:44;100020.06;;;6.63;93.69
22206;BME280;11272;50.104;8.754;2023-03-14T21:03:17;100021.06;;;6.56;93.26
22206;BME280;11272;50.104;8.754;2023-03-14T21:05:50;100029.00;;;6.53;92.91
22206;BME280;11272;50.104;8.754;2023-03-14T21:08:24;100035.13;;;6.55;92.96
22206;BME280;11272;50.104;8.754;2023-03-14T21:10:51;100043.00;;;6.58;93.12
22206;BME280;11272;50.104;8.754;2023-03-14T21:13:20;100048.34;;;6.54;91.75
22206;BME280;11272;50.104;8.754;2023-03-14T21:15:49;100044.94;;;6.43;91.00
22206;BME280;11272;50.104;8.754;2023-03-14T21:18:36;100046.75;;;6.38;91.33
22206;BME280;11272;50.104;8.754;2023-03-14T21:21:01;100059.09;;;6.34;91.39
22206;BME280;11272;50.104;8.754;2023-03-14T21:23:27;100062.56;;;6.38;91.25
22206;BME280;11272;50.104;8.754;2023-03-14T21:25:55;100061.63;;;6.45;91.54
22206;BME280;11272;50.104;8.754;2023-03-14T21:28:29;100068.59;;;6.49;91.78
22206;BME280;11272;50.104;8.754;2023-03-14T21:31:04;100062.44;;;6.50;91.56
22206;BME280;11272;50.104;8.754;2023-03-14T21:33:34;100060.69;;;6.50;91.36
22206;BME280;11272;50.104;8.754;2023-03-14T21:36:05;100065.91;;;6.53;91.47
22206;BME280;11272;50.104;8.754;2023-03-14T21:38:35;100071.19;;;6.55;91.31
22206;BME280;11272;50.104;8.754;2023-03-14T21:41:08;100073.81;;;6.53;90.63
22206;BME280;11272;50.104;8.754;2023-03-14T21:43:37;100079.09;;;6.55;90.46
22206;BME280;11272;50.104;8.754;2023-03-14T21:46:15;100083.47;;;6.56;90.56
22206;BME280;11272;50.104;8.754;2023-03-14T21:48:48;100080.81;;;6.57;90.18
22206;BME280;11272;50.104;8.754;2023-03-14T21:51:24;100091.34;;;6.59;89.94
22206;BME280;11272;50.104;8.754;2023-03-14T21:53:57;100102.78;;;6.59;89.85
22206;BME280;11272;50.104;8.754;2023-03-14T21:56:26;100104.53;;;6.60;89.91
22206;BME280;11272;50.104;8.754;2023-03-14T21:58:53;100106.25;;;6.63;89.68
22206;BME280;11272;50.104;8.754;2023-03-14T22:01:27;100111.53;;;6.63;89.44
22206;BME280;11272;50.104;8.754;2023-03-14T22:03:54;100113.28;;;6.64;89.63
22206;BME280;11272;50.104;8.754;2023-03-14T22:06:28;100113.28;;;6.64;89.22
22206;BME280;11272;50.104;8.754;2023-03-14T22:08:57;100114.19;;;6.61;88.56
22206;BME280;11272;50.104;8.754;2023-03-14T22:11:42;100115.94;;;6.62;88.95
22206;BME280;11272;50.104;8.754;2023-03-14T22:14:11;100117.72;;;6.62;88.71
22206;BME280;11272;50.104;8.754;2023-03-14T22:16:47;100122.94;;;6.63;88.68
22206;BME280;11272;50.104;8.754;2023-03-14T22:19:24;100128.28;;;6.60;88.16
22206;BME280;11272;50.104;8.754;2023-03-14T22:21:50;100125.66;;;6.57;88.08
22206;BME280;11272;50.104;8.754;2023-03-14T22:24:19;100130.09;;;6.57;87.65
22206;BME280;11272;50.104;8.754;2023-03-14T22:26:45;100134.50;;;6.55;87.67
22206;BME280;11272;50.104;8.754;2023-03-14T22:29:15;100140.66;;;6.52;86.95
22206;BME280;11272;50.104;8.754;2023-03-14T22:31:42;100142.44;;;6.50;86.71
22206;BME280;11272;50.104;8.754;2023-03-14T22:34:16;100152.97;;;6.52;86.75
22206;BME280;11272;50.104;8.754;2023-03-14T22:36:47;100160.88;;;6.53;86.71
22206;BME280;11272;50.104;8.754;2023-03-14T22:39:13;100166.13;;;6.53;86.87
22206;BME280;11272;50.104;8.754;2023-03-14T22:41:49;100161.75;;;6.52;86.47
22206;BME280;11272;50.104;8.754;2023-03-14T22:44:25;100178.50;;;6.50;86.15